createdAt,value
2023-02-07T00:05:20.076Z,103534.72
2023-02-07T00:10:42.458Z,103556.63
2023-02-07T00:16:04.715Z,103559.44
2023-02-07T00:21:30.913Z,103545.81
2023-02-07T00:26:53.971Z,103541.30
2023-02-07T00:32:16.284Z,103548.69
2023-02-07T00:37:38.665Z,103538.20
2023-02-07T00:43:00.854Z,103549.14
2023-02-07T00:48:23.695Z,103545.91
2023-02-07T00:53:48.499Z,103541.70
2023-02-07T00:59:11.117Z,103540.63
2023-02-07T01:04:33.432Z,103542.09
2023-02-07T01:09:56.213Z,103535.61
2023-02-07T01:15:19.440Z,103533.25
2023-02-07T01:20:41.801Z,103538.00
2023-02-07T01:26:04.837Z,103536.41
2023-02-07T01:31:28.504Z,103532.20
2023-02-07T01:36:51.153Z,103531.44
2023-02-07T01:42:13.478Z,103537.69
2023-02-07T01:47:38.249Z,103545.64
2023-02-07T01:53:01.525Z,103541.34
2023-02-07T01:58:25.729Z,103531.72
2023-02-07T02:03:50.456Z,103531.05
2023-02-07T02:09:17.601Z,103527.53
2023-02-07T02:15:09.340Z,103514.52
2023-02-07T02:20:54.465Z,103513.91
2023-02-07T02:26:27.617Z,103509.52
2023-02-07T02:32:43.020Z,103495.33
2023-02-07T02:38:15.993Z,103496.83
2023-02-07T02:44:01.172Z,103483.49
2023-02-07T02:49:26.406Z,103487.02
2023-02-07T02:54:51.460Z,103486.27
2023-02-07T03:00:52.625Z,103496.03
2023-02-07T03:06:28.597Z,103483.28
2023-02-07T03:12:18.262Z,103486.16
2023-02-07T03:17:53.591Z,103490.29
2023-02-07T03:23:18.943Z,103497.30
2023-02-07T03:28:43.543Z,103501.70
2023-02-07T03:34:11.258Z,103490.26
2023-02-07T03:39:33.867Z,103500.78
2023-02-07T03:44:59.115Z,103499.92
2023-02-07T03:50:22.321Z,103500.87
2023-02-07T03:55:45.565Z,103497.30
2023-02-07T04:01:07.854Z,103491.17
2023-02-07T04:06:30.681Z,103485.45
2023-02-07T04:11:54.622Z,103475.77
2023-02-07T04:17:17.096Z,103481.09
2023-02-07T04:22:40.197Z,103471.42
2023-02-07T04:28:02.669Z,103474.09
2023-02-07T04:33:26.320Z,103475.89
2023-02-07T04:38:48.968Z,103484.73
2023-02-07T04:44:11.314Z,103488.26
2023-02-07T04:49:34.547Z,103487.73
2023-02-07T04:54:57.337Z,103487.88
2023-02-07T05:00:20.617Z,103497.64
2023-02-07T05:05:45.954Z,103494.20
2023-02-07T05:11:14.511Z,103489.02
2023-02-07T05:16:36.780Z,103487.41
2023-02-07T05:21:59.148Z,103486.55
2023-02-07T05:27:21.381Z,103476.84
2023-02-07T05:33:01.752Z,103467.91
2023-02-07T05:38:27.627Z,103475.80
2023-02-07T05:43:50.423Z,103482.03
2023-02-07T05:49:12.663Z,103486.44
2023-02-07T05:54:35.123Z,103476.70
2023-02-07T05:59:57.662Z,103479.34
2023-02-07T06:05:25.372Z,103484.61
2023-02-07T06:10:47.568Z,103487.24
2023-02-07T06:16:11.283Z,103490.77
2023-02-07T06:21:45.829Z,103487.19
2023-02-07T06:26:59.133Z,103478.38
2023-02-07T06:32:21.563Z,103471.41
2023-02-07T06:37:43.847Z,103466.25
2023-02-07T06:43:08.917Z,103461.88
2023-02-07T06:48:30.527Z,103468.86
2023-02-07T06:53:52.722Z,103474.07
2023-02-07T06:59:14.985Z,103480.28
2023-02-07T07:04:37.499Z,103491.77
2023-02-07T07:09:59.756Z,103493.53
2023-02-07T07:15:23.616Z,103499.74
2023-02-07T07:20:46.024Z,103493.77
2023-02-07T07:26:08.602Z,103496.49
2023-02-07T07:31:31.093Z,103491.45
2023-02-07T07:36:55.072Z,103503.11
2023-02-07T07:42:18.372Z,103506.81
2023-02-07T07:47:40.672Z,103512.25
2023-02-07T07:53:02.982Z,103523.91
2023-02-07T07:58:25.543Z,103520.63
2023-02-07T08:03:48.131Z,103531.34
2023-02-07T08:09:10.391Z,103518.45
2023-02-07T08:14:32.705Z,103521.36
2023-02-07T08:19:55.002Z,103539.10
2023-02-07T08:25:17.434Z,103541.74
2023-02-07T08:30:40.824Z,103554.08
2023-02-07T08:36:05.670Z,103554.27
2023-02-07T08:41:27.883Z,103553.44
2023-02-07T08:46:50.160Z,103557.96
2023-02-07T08:52:12.795Z,103557.23
2023-02-07T08:57:35.032Z,103558.98
2023-02-07T09:02:57.243Z,103549.35
2023-02-07T09:08:20.195Z,103544.00
2023-02-07T09:13:44.639Z,103541.42
2023-02-07T09:19:07.008Z,103555.67
2023-02-07T09:24:29.295Z,103556.73
2023-02-07T09:29:52.141Z,103559.45
2023-02-07T09:35:14.419Z,103556.91
2023-02-07T09:40:39.450Z,103550.11
2023-02-07T09:46:07.384Z,103546.80
2023-02-07T09:51:32.545Z,103534.57
2023-02-07T09:56:55.217Z,103535.44
2023-02-07T10:02:23.499Z,103537.41
2023-02-07T10:07:46.044Z,103539.17
2023-02-07T10:13:35.550Z,103534.72
2023-02-07T10:19:11.807Z,103529.38
2023-02-07T10:24:50.883Z,103525.30
2023-02-07T10:30:23.326Z,103514.94
2023-02-07T10:35:50.817Z,103504.41
2023-02-07T10:41:20.852Z,103502.70
2023-02-07T10:46:44.373Z,103493.98
2023-02-07T10:52:26.137Z,103471.09
2023-02-07T10:57:54.264Z,103479.92
2023-02-07T11:03:23.038Z,103485.41
2023-02-07T11:08:50.131Z,103479.92
2023-02-07T11:14:18.621Z,103468.44
2023-02-07T11:19:43.475Z,103467.73
2023-02-07T11:25:10.168Z,103466.84
2023-02-07T11:30:40.202Z,103479.14
2023-02-07T11:36:19.385Z,103470.34
2023-02-07T11:41:46.534Z,103479.00
2023-02-07T11:47:11.463Z,103467.37
2023-02-07T11:52:35.354Z,103463.98
2023-02-07T11:57:58.868Z,103454.33
2023-02-07T12:03:34.677Z,103457.06
2023-02-07T12:08:58.714Z,103457.98
2023-02-07T12:14:38.232Z,103459.70
2023-02-07T12:20:13.925Z,103462.37
2023-02-07T12:25:44.036Z,103462.91
2023-02-07T12:31:11.360Z,103470.84
2023-02-07T12:36:46.763Z,103483.27
2023-02-07T12:42:16.908Z,103471.73
2023-02-07T12:47:50.044Z,103468.20
2023-02-07T12:53:23.181Z,103467.19
2023-02-07T12:59:07.093Z,103466.30
2023-02-07T13:05:05.789Z,103468.06
2023-02-07T13:10:45.009Z,103460.86
2023-02-07T13:16:32.760Z,103463.39
2023-02-07T13:22:00.373Z,103466.10
2023-02-07T13:27:26.522Z,103452.72
2023-02-07T13:32:49.715Z,103460.58
2023-02-07T13:38:36.045Z,103457.06
2023-02-07T13:44:38.576Z,103465.05
2023-02-07T13:50:20.051Z,103466.84
2023-02-07T13:55:56.576Z,103464.23
2023-02-07T14:01:32.909Z,103459.84
2023-02-07T14:07:00.156Z,103470.27
2023-02-07T14:12:45.737Z,103463.28
2023-02-07T14:18:41.228Z,103464.19
2023-02-07T14:24:24.612Z,103458.07
2023-02-07T14:30:03.693Z,103456.31
2023-02-07T14:35:34.208Z,103458.02
2023-02-07T14:41:11.222Z,103457.04
2023-02-07T14:46:41.299Z,103457.91
2023-02-07T14:52:38.412Z,103464.08
2023-02-07T14:58:20.834Z,103465.59
2023-02-07T15:03:44.755Z,103481.41
2023-02-07T15:09:19.954Z,103485.73
2023-02-07T15:14:48.306Z,103482.16
2023-02-07T15:20:13.141Z,103490.95
2023-02-07T15:25:36.631Z,103489.20
2023-02-07T15:31:13.917Z,103497.97
2023-02-07T15:36:50.680Z,103501.28
2023-02-07T15:42:14.788Z,103501.27
2023-02-07T15:47:50.858Z,103494.98
2023-02-07T15:53:18.468Z,103500.13
2023-02-07T15:58:43.993Z,103505.42
2023-02-07T16:04:09.723Z,103508.05
2023-02-07T16:09:52.796Z,103501.01
2023-02-07T16:15:29.545Z,103501.63
2023-02-07T16:20:54.510Z,103508.44
2023-02-07T16:26:17.796Z,103521.50
2023-02-07T16:31:41.096Z,103522.80
2023-02-07T16:37:06.246Z,103529.52
2023-02-07T16:42:30.601Z,103527.41
2023-02-07T16:47:52.914Z,103530.64
2023-02-07T16:53:15.749Z,103534.52
2023-02-07T16:58:41.148Z,103534.25
2023-02-07T17:04:04.393Z,103541.20
2023-02-07T17:09:43.505Z,103556.69
2023-02-07T17:15:05.711Z,103554.19
2023-02-07T17:20:39.237Z,103561.40
2023-02-07T17:26:02.848Z,103544.28
2023-02-07T17:31:25.448Z,103546.71
2023-02-07T17:36:55.805Z,103544.45
2023-02-07T17:42:18.940Z,103545.71
2023-02-07T17:47:41.320Z,103549.07
2023-02-07T17:53:03.952Z,103555.37
2023-02-07T17:58:27.014Z,103556.23
2023-02-07T18:03:49.222Z,103560.52
2023-02-07T18:09:11.596Z,103557.47
2023-02-07T18:14:34.017Z,103560.31
2023-02-07T18:19:56.698Z,103573.49
2023-02-07T18:25:19.606Z,103577.48
2023-02-07T18:30:43.409Z,103590.94
2023-02-07T18:36:09.296Z,103580.75
2023-02-07T18:41:36.420Z,103592.52
2023-02-07T18:46:58.760Z,103598.76
2023-02-07T18:52:21.105Z,103609.80
2023-02-07T18:57:43.405Z,103609.96
2023-02-07T19:03:06.429Z,103606.45
2023-02-07T19:08:28.792Z,103614.70
2023-02-07T19:13:52.745Z,103613.31
2023-02-07T19:19:18.372Z,103620.23
2023-02-07T19:24:42.693Z,103619.78
2023-02-07T19:30:07.045Z,103615.87
2023-02-07T19:35:29.719Z,103628.55
2023-02-07T19:40:52.046Z,103627.16
2023-02-07T19:46:14.808Z,103625.73
2023-02-07T19:51:39.748Z,103630.09
2023-02-07T19:57:02.577Z,103632.36
2023-02-07T20:02:25.810Z,103627.29
2023-02-07T20:07:48.676Z,103623.70
2023-02-07T20:13:11.140Z,103627.33
2023-02-07T20:18:33.703Z,103629.92
2023-02-07T20:23:57.846Z,103625.14
2023-02-07T20:29:23.559Z,103620.31
2023-02-07T20:34:45.869Z,103621.92
2023-02-07T20:40:08.213Z,103622.98
2023-02-07T20:45:30.542Z,103631.40
2023-02-07T20:50:52.785Z,103636.59
2023-02-07T20:56:19.219Z,103647.25
2023-02-07T21:01:43.682Z,103653.70
2023-02-07T21:07:06.896Z,103644.28
2023-02-07T21:12:29.668Z,103661.43
2023-02-07T21:17:52.024Z,103660.39
2023-02-07T21:23:14.226Z,103672.64
2023-02-07T21:28:37.560Z,103665.72
2023-02-07T21:34:01.006Z,103667.50
2023-02-07T21:39:25.458Z,103673.98
2023-02-07T21:44:49.364Z,103672.32
2023-02-07T21:50:18.075Z,103672.36
2023-02-07T21:55:41.619Z,103687.44
2023-02-07T22:01:05.755Z,103690.21
2023-02-07T22:06:29.366Z,103687.16
2023-02-07T22:11:55.026Z,103694.13
2023-02-07T22:17:17.374Z,103697.58
2023-02-07T22:22:39.678Z,103701.20
2023-02-07T22:28:03.140Z,103700.47
2023-02-07T22:33:26.726Z,103701.36
2023-02-07T22:38:49.046Z,103705.77
2023-02-07T22:44:12.101Z,103709.32
2023-02-07T22:49:34.419Z,103706.80
2023-02-07T22:54:56.903Z,103697.16
2023-02-07T23:00:20.652Z,103711.20
2023-02-07T23:05:43.697Z,103718.31
2023-02-07T23:11:06.008Z,103718.31
2023-02-07T23:16:35.435Z,103718.21
2023-02-07T23:21:57.887Z,103720.84
2023-02-07T23:27:20.585Z,103720.02
2023-02-07T23:32:42.835Z,103709.42
2023-02-07T23:38:06.828Z,103714.76
2023-02-07T23:43:29.950Z,103714.80
2023-02-07T23:48:52.223Z,103718.35
2023-02-07T23:54:15.678Z,103721.98
2023-02-07T23:59:38.036Z,103727.24
